Time;durP1;ratioP1;P1;durP2;ratioP2;P2;SDS_P1;SDS_P2;PMS_P1;PMS_P2;Temp;Humidity;BMP_temperature;BMP_pressure;BME280_temperature;BME280_humidity;BME280_pressure;Samples;Min_cycle;Max_cycle;Signal;HPM_P1;HPM_P2
2022/11/04 00:02:06;;;;;;;28.40;10.67;;;;;;;10.41;79.07;100983.94;5031262;28;20049;-65
2022/11/04 00:04:33;;;;;;;23.87;10.13;;;;;;;10.43;79.34;100990.09;5032383;28;20044;-68
2022/11/04 00:07:00;;;;;;;14.00;9.27;;;;;;;10.37;79.17;100993.97;5032346;28;20484;-65
2022/11/04 00:09:29;;;;;;;21.37;8.17;;;;;;;10.36;79.06;100985.88;5033619;28;20345;-66
2022/11/04 00:14:42;;;;;;;20.43;9.90;;;;;;;10.36;79.51;100980.28;5033581;28;20049;-64
2022/11/04 00:17:22;;;;;;;25.57;10.87;;;;;;;10.44;79.37;100979.75;5033664;28;20057;-64
2022/11/04 00:33:48;;;;;;;23.10;8.57;;;;;;;10.52;79.49;100978.41;5036799;28;20108;-67
2022/11/04 00:36:15;;;;;;;21.73;9.77;;;;;;;10.62;79.25;100973.72;5028251;28;20056;-65
2022/11/04 00:38:43;;;;;;;16.13;8.73;;;;;;;10.65;79.54;100972.34;5030310;28;20050;-66
2022/11/04 00:41:24;;;;;;;22.90;9.17;;;;;;;10.68;79.58;100975.44;5039288;28;20053;-66
2022/11/04 00:43:55;;;;;;;18.40;8.77;;;;;;;10.67;79.43;100953.38;5039772;28;20145;-67
2022/11/04 00:46:22;;;;;;;17.02;8.70;;;;;;;10.71;79.50;100964.84;5037649;28;20049;-66
2022/11/04 00:48:49;;;;;;;19.10;9.70;;;;;;;10.83;79.27;100982.22;5041575;28;20049;-66
2022/11/04 00:51:16;;;;;;;18.07;9.10;;;;;;;10.86;79.29;100982.50;5032657;28;20045;-65
2022/11/04 00:53:43;;;;;;;18.57;8.97;;;;;;;10.86;79.26;100996.47;5041745;28;20056;-66
2022/11/04 00:56:09;;;;;;;22.20;10.03;;;;;;;10.86;79.22;100990.03;5036696;28;20049;-64
2022/11/04 00:58:36;;;;;;;16.70;9.90;;;;;;;10.85;79.12;100996.75;5033240;28;20056;-64
2022/11/04 01:01:11;;;;;;;20.47;11.80;;;;;;;10.81;78.79;100995.63;5044840;28;20053;-66
2022/11/04 01:03:39;;;;;;;19.47;9.80;;;;;;;10.85;78.97;100988.38;5041365;28;20081;-65
2022/11/04 01:06:05;;;;;;;22.00;11.17;;;;;;;10.82;78.80;100986.13;5032739;28;20423;-65
2022/11/04 01:08:32;;;;;;;23.53;12.53;;;;;;;10.76;78.85;100984.41;5046352;28;20045;-65
2022/11/04 01:11:07;;;;;;;29.40;12.87;;;;;;;10.73;78.67;100990.53;5043556;28;20412;-65
2022/11/04 01:13:35;;;;;;;24.73;13.77;;;;;;;10.73;78.97;100990.53;5057100;28;20049;-64
2022/11/04 01:16:05;;;;;;;26.30;12.80;;;;;;;10.76;78.78;101006.75;5050428;28;20049;-65
2022/11/04 01:18:32;;;;;;;26.50;13.77;;;;;;;10.75;78.86;100993.91;5039292;28;20056;-65
2022/11/04 01:21:03;;;;;;;29.13;13.30;;;;;;;10.74;78.66;100992.25;5039587;28;20458;-64
2022/11/04 01:23:30;;;;;;;29.67;12.07;;;;;;;10.73;78.65;100999.75;5042395;28;20068;-64
2022/11/04 01:25:57;;;;;;;27.10;12.53;;;;;;;10.72;78.74;100992.50;5039763;28;20045;-65
2022/11/04 01:28:23;;;;;;;20.80;12.37;;;;;;;10.70;78.76;100988.28;5045990;28;20385;-66
2022/11/04 01:30:50;;;;;;;24.03;12.93;;;;;;;10.66;78.54;101000.00;5040275;28;20429;-64
2022/11/04 01:33:17;;;;;;;21.57;13.10;;;;;;;10.60;78.75;101003.06;5042070;28;20369;-64
2022/11/04 01:35:44;;;;;;;25.23;12.83;;;;;;;10.52;78.62;100996.00;5044149;28;20052;-64
2022/11/04 01:38:11;;;;;;;26.80;14.73;;;;;;;10.52;78.77;101001.59;5041878;28;20415;-64
2022/11/04 01:40:39;;;;;;;30.17;16.47;;;;;;;10.54;78.70;101004.97;5034023;28;20152;-65
2022/11/04 01:43:15;;;;;;;28.07;15.70;;;;;;;10.50;78.95;100998.25;5034451;28;20055;-64
2022/11/04 01:45:47;;;;;;;31.10;19.10;;;;;;;10.54;78.88;101004.13;5030585;28;20051;-64
2022/11/04 01:48:22;;;;;;;33.20;20.60;;;;;;;10.51;78.64;100999.06;5031815;28;20049;-64
2022/11/04 01:50:51;;;;;;;31.63;18.73;;;;;;;10.55;78.97;101006.63;5040972;28;20053;-64
2022/11/04 01:53:22;;;;;;;35.30;20.70;;;;;;;10.54;78.63;101013.34;5049725;28;20049;-64
2022/11/04 01:55:57;;;;;;;34.70;21.37;;;;;;;10.52;78.92;101018.34;5043113;28;20057;-64
2022/11/04 01:58:30;;;;;;;44.53;23.87;;;;;;;10.53;78.89;101020.03;5037578;28;20076;-65
2022/11/04 02:00:57;;;;;;;45.37;22.77;;;;;;;10.59;79.00;101013.34;5038920;28;20053;-66
2022/11/04 02:03:33;;;;;;;35.70;20.43;;;;;;;10.61;78.95;101008.34;5033135;28;20041;-66
2022/11/04 02:06:02;;;;;;;38.13;19.20;;;;;;;10.70;78.96;101000.31;5031359;28;20050;-65
2022/11/04 02:08:28;;;;;;;48.20;19.47;;;;;;;10.77;79.03;101022.41;5040164;28;20075;-63
2022/11/04 02:11:03;;;;;;;38.53;20.30;;;;;;;10.73;78.64;101012.88;5042674;28;20060;-64
2022/11/04 02:13:32;;;;;;;38.43;17.83;;;;;;;10.74;78.81;101009.00;5036035;28;20353;-64
2022/11/04 02:16:14;;;;;;;31.97;15.77;;;;;;;10.72;78.84;101022.38;5042731;28;20425;-64
2022/11/04 02:19:13;;;;;;;30.83;15.57;;;;;;;10.64;78.81;101032.13;5040290;28;20404;-64
2022/11/04 02:21:45;;;;;;;26.20;14.67;;;;;;;10.61;79.08;101036.28;5038089;28;20038;-64
2022/11/04 02:24:27;;;;;;;26.57;12.23;;;;;;;10.57;78.79;101037.09;5035320;28;20049;-64
2022/11/04 02:27:26;;;;;;;22.53;11.70;;;;;;;10.51;78.84;101024.22;5040118;28;20172;-65
2022/11/04 02:30:06;;;;;;;15.70;10.83;;;;;;;10.57;79.05;101025.94;5032307;28;20053;-64
2022/11/04 02:32:56;;;;;;;20.53;10.23;;;;;;;10.62;78.95;101026.78;5042781;28;20073;-62
2022/11/04 02:35:43;;;;;;;21.03;8.87;;;;;;;10.58;78.74;101022.03;5035040;28;20050;-64
2022/11/04 02:38:12;;;;;;;13.40;7.37;;;;;;;10.65;78.72;101034.63;5035377;28;20049;-63
2022/11/04 02:40:42;;;;;;;21.38;9.23;;;;;;;10.62;78.65;101032.38;5039786;28;20065;-65
2022/11/04 02:43:09;;;;;;;17.65;9.90;;;;;;;10.63;78.71;101042.47;5028580;28;20510;-65
2022/11/04 02:45:48;;;;;;;18.60;9.60;;;;;;;10.56;78.77;101040.97;5031036;28;20184;-64
2022/11/04 02:48:39;;;;;;;19.50;10.27;;;;;;;10.42;78.81;101040.59;5031729;28;20057;-66
2022/11/04 02:51:06;;;;;;;27.37;10.47;;;;;;;10.34;78.82;101041.13;5040227;28;20056;-65
2022/11/04 02:53:43;;;;;;;14.17;8.53;;;;;;;10.18;78.44;101029.78;5061356;28;20488;-64
2022/11/04 02:56:12;;;;;;;16.30;8.40;;;;;;;10.21;78.92;101042.38;5044061;28;20124;-65
2022/11/04 02:58:54;;;;;;;22.45;7.57;;;;;;;10.17;78.87;101024.47;5038849;28;20419;-64
2022/11/04 03:01:26;;;;;;;18.10;7.10;;;;;;;10.31;79.11;101033.28;5031396;28;20496;-64
2022/11/04 03:04:03;;;;;;;11.23;6.33;;;;;;;10.40;78.91;101028.88;5035587;28;20558;-65
2022/11/04 03:06:32;;;;;;;10.70;6.60;;;;;;;10.48;78.92;101028.38;5034490;28;20073;-66
2022/11/04 03:09:01;;;;;;;21.47;8.33;;;;;;;10.57;78.62;101040.72;5030726;28;20052;-66
2022/11/04 03:11:29;;;;;;;14.73;6.37;;;;;;;10.55;78.68;101044.91;5031104;28;20056;-65
2022/11/04 03:14:12;;;;;;;14.50;7.40;;;;;;;10.44;78.33;101043.97;5032623;28;20052;-66
2022/11/04 03:16:47;;;;;;;20.87;7.53;;;;;;;10.45;78.43;101054.03;5034842;28;20056;-65
2022/11/04 03:19:24;;;;;;;16.83;6.63;;;;;;;10.43;78.75;101034.78;5034055;28;20072;-64
2022/11/04 03:22:04;;;;;;;9.27;6.63;;;;;;;10.45;78.63;101037.28;5035356;28;20056;-65
2022/11/04 03:24:31;;;;;;;11.55;7.65;;;;;;;10.44;78.53;101032.81;5043301;28;20057;-65
2022/11/04 03:27:26;;;;;;;11.80;5.63;;;;;;;10.45;78.58;101034.50;5032432;28;20060;-65
2022/11/04 03:30:13;;;;;;;11.07;5.93;;;;;;;10.41;78.51;101036.13;5036052;28;20123;-65
2022/11/04 03:33:00;;;;;;;14.87;6.03;;;;;;;10.44;78.37;101030.84;5032187;28;20046;-65
2022/11/04 03:35:27;;;;;;;15.30;6.57;;;;;;;10.44;78.23;101041.19;5036523;28;20041;-65
2022/11/04 03:37:55;;;;;;;14.17;7.13;;;;;;;10.33;78.22;101043.06;5041052;28;20079;-65
2022/11/04 03:40:23;;;;;;;16.23;6.80;;;;;;;10.24;78.11;101046.59;5046799;28;20203;-66
2022/11/04 03:43:06;;;;;;;12.50;7.70;;;;;;;10.09;78.17;101036.97;5045342;28;20045;-65
2022/11/04 03:45:34;;;;;;;14.20;6.97;;;;;;;10.00;78.14;101032.97;5032494;28;20159;-65
2022/11/04 03:48:01;;;;;;;12.37;7.17;;;;;;;9.93;78.04;101037.94;5036042;28;20071;-64
2022/11/04 03:50:30;;;;;;;14.07;6.07;;;;;;;9.87;78.10;101041.78;5034164;28;20506;-63
2022/11/04 03:52:58;;;;;;;15.47;6.67;;;;;;;9.80;78.34;101043.94;5042276;28;20045;-65
2022/11/04 03:55:41;;;;;;;14.83;6.57;;;;;;;9.70;78.19;101025.16;5044452;28;20485;-66
2022/11/04 03:58:43;;;;;;;13.00;7.23;;;;;;;9.69;78.44;101032.69;5038416;28;20068;-65
2022/11/04 04:01:18;;;;;;;15.67;6.20;;;;;;;9.81;78.36;101021.38;5030721;28;20049;-64
2022/11/04 04:03:56;;;;;;;10.20;6.33;;;;;;;9.80;78.03;101022.47;5050116;28;20514;-64
2022/11/04 04:06:29;;;;;;;13.27;7.30;;;;;;;9.71;78.15;101040.78;5048315;28;20045;-64
2022/11/04 04:09:04;;;;;;;14.70;7.73;;;;;;;9.62;78.49;101050.72;5044442;28;20049;-64
2022/11/04 04:11:31;;;;;;;13.63;7.33;;;;;;;9.56;78.70;101060.13;5035040;28;20045;-64
2022/11/04 04:14:07;;;;;;;15.10;8.70;;;;;;;9.52;78.38;101057.03;5039780;28;20140;-63
2022/11/04 04:16:43;;;;;;;15.47;8.47;;;;;;;9.59;78.61;101056.81;5036901;28;20053;-63
2022/11/04 04:19:20;;;;;;;16.47;7.80;;;;;;;9.61;78.40;101055.47;5035591;28;20045;-63
2022/11/04 04:22:05;;;;;;;16.27;8.83;;;;;;;9.54;78.27;101063.19;5042425;28;20092;-62
2022/11/04 04:27:31;;;;;;;14.43;7.70;;;;;;;9.40;78.44;101062.75;5040715;28;20057;-63
2022/11/04 04:30:11;;;;;;;17.87;7.73;;;;;;;9.36;78.63;101057.94;5047006;28;20081;-62
2022/11/04 04:32:45;;;;;;;12.77;7.97;;;;;;;9.31;78.76;101064.31;5050494;28;20052;-62
2022/11/04 04:46:30;;;;;;;14.33;6.63;;;;;;;9.32;78.99;101065.16;5037364;28;20053;-63
2022/11/04 04:49:07;;;;;;;14.67;8.93;;;;;;;9.29;78.87;101065.66;5042438;28;20042;-62
2022/11/04 04:51:46;;;;;;;15.77;7.53;;;;;;;9.33;79.07;101072.41;5038733;28;20404;-62
2022/11/04 04:54:13;;;;;;;12.10;7.00;;;;;;;9.35;79.36;101070.22;5039768;28;20399;-64
2022/11/04 04:56:40;;;;;;;17.63;7.33;;;;;;;9.43;79.31;101072.53;5045987;28;20393;-63
2022/11/04 04:59:07;;;;;;;15.00;7.37;;;;;;;9.50;79.08;101073.16;5044716;28;20054;-63
2022/11/04 05:01:34;;;;;;;14.40;7.67;;;;;;;9.54;79.07;101079.94;5042062;28;20045;-64
2022/11/04 05:04:01;;;;;;;16.73;7.73;;;;;;;9.56;79.06;101074.91;5046813;28;20060;-63
2022/11/04 05:06:27;;;;;;;12.20;8.40;;;;;;;9.56;79.14;101072.13;5039488;28;20046;-63
2022/11/04 05:08:54;;;;;;;14.83;8.73;;;;;;;9.61;79.16;101072.19;5038713;28;20765;-62
2022/11/04 05:11:21;;;;;;;17.50;8.33;;;;;;;9.68;79.09;101077.56;5031679;28;20045;-63
2022/11/04 05:13:51;;;;;;;23.27;9.70;;;;;;;9.82;79.09;101076.06;5034779;28;20053;-64
2022/11/04 05:16:18;;;;;;;19.33;9.80;;;;;;;9.84;78.92;101079.41;5039621;28;20116;-63
2022/11/04 05:18:45;;;;;;;18.93;8.93;;;;;;;9.81;78.74;101073.50;5033085;28;20045;-64
2022/11/04 05:21:14;;;;;;;13.73;7.60;;;;;;;9.81;78.77;101067.94;5036411;28;20045;-63
2022/11/04 05:23:41;;;;;;;18.80;8.17;;;;;;;9.89;78.94;101071.09;5036193;28;20052;-64
2022/11/04 05:26:07;;;;;;;15.33;8.40;;;;;;;9.92;78.69;101070.56;5035930;28;20500;-63
2022/11/04 05:28:34;;;;;;;12.43;6.57;;;;;;;9.87;78.79;101072.47;5045580;28;20059;-64
2022/11/04 05:31:03;;;;;;;12.40;6.80;;;;;;;9.94;78.95;101078.66;5040710;28;20056;-64
2022/11/04 05:33:31;;;;;;;11.70;5.70;;;;;;;9.97;78.85;101087.34;5040716;28;20045;-64
2022/11/04 05:36:11;;;;;;;13.57;7.20;;;;;;;10.03;78.74;101082.69;5037241;28;20476;-64
2022/11/04 05:38:39;;;;;;;14.88;7.10;;;;;;;10.06;78.58;101078.53;5047094;28;20384;-65
2022/11/04 05:41:08;;;;;;;15.53;6.70;;;;;;;10.07;78.31;101081.03;5037487;28;20057;-63
2022/11/04 05:43:35;;;;;;;11.13;8.50;;;;;;;10.02;78.23;101086.59;5039101;28;20036;-63
2022/11/04 05:46:02;;;;;;;8.93;7.20;;;;;;;9.91;77.67;101085.63;5040596;28;20056;-64
2022/11/04 05:48:29;;;;;;;13.40;8.90;;;;;;;9.78;77.92;101079.59;5030136;28;20053;-63
2022/11/04 05:50:56;;;;;;;10.70;7.27;;;;;;;9.67;77.75;101085.06;5044103;28;20147;-64
2022/11/04 05:53:23;;;;;;;17.23;8.50;;;;;;;9.57;77.94;101089.69;5054891;28;20045;-63
2022/11/04 05:55:50;;;;;;;16.07;7.50;;;;;;;9.49;77.73;101093.78;5033519;28;20106;-63
2022/11/04 05:58:16;;;;;;;11.17;8.20;;;;;;;9.40;77.71;101096.22;5044340;28;20053;-63
2022/11/04 06:00:43;;;;;;;12.10;8.70;;;;;;;9.31;77.73;101105.28;5040947;28;20056;-63
2022/11/04 06:03:10;;;;;;;17.57;9.50;;;;;;;9.24;77.75;101095.16;5041539;28;20055;-65
2022/11/04 06:05:41;;;;;;;11.03;8.47;;;;;;;9.17;77.88;101097.28;5052473;28;20053;-65
2022/11/04 06:08:08;;;;;;;12.07;7.67;;;;;;;9.13;77.68;101110.06;5041029;28;20060;-65
2022/11/04 06:10:36;;;;;;;13.00;7.93;;;;;;;9.10;77.68;101106.94;5046962;28;20116;-65
2022/11/04 06:13:02;;;;;;;14.20;9.63;;;;;;;9.07;77.55;101108.31;5046069;28;20056;-65
2022/11/04 06:15:29;;;;;;;12.93;8.97;;;;;;;9.05;77.36;101110.50;5036101;28;20132;-64
2022/11/04 06:17:56;;;;;;;13.13;8.90;;;;;;;9.03;77.38;101123.84;5034940;28;20060;-66
2022/11/04 06:20:23;;;;;;;14.53;9.20;;;;;;;8.99;77.41;101129.09;5034279;28;20064;-65
2022/11/04 06:22:50;;;;;;;12.20;8.77;;;;;;;8.91;77.55;101128.66;5033948;28;20471;-64
2022/11/04 06:25:16;;;;;;;17.17;9.23;;;;;;;8.93;77.62;101124.53;5037552;28;20044;-64
2022/11/04 06:27:43;;;;;;;10.70;7.60;;;;;;;8.85;77.84;101129.69;5036740;28;20048;-64
2022/11/04 06:30:11;;;;;;;11.20;7.93;;;;;;;8.80;77.82;101127.69;5036187;28;20491;-65
2022/11/04 06:32:38;;;;;;;16.40;8.50;;;;;;;8.82;77.99;101125.50;5040718;28;20053;-65
2022/11/04 06:35:07;;;;;;;13.87;8.23;;;;;;;8.79;77.63;101123.22;5030515;28;20412;-64
2022/11/04 06:37:34;;;;;;;10.60;7.80;;;;;;;8.77;78.22;101126.25;5038308;28;20059;-65
2022/11/04 06:40:01;;;;;;;11.43;9.00;;;;;;;8.82;78.03;101128.28;5041449;28;20050;-65
2022/11/04 06:42:28;;;;;;;13.87;7.90;;;;;;;8.79;77.99;101128.78;5035432;28;20052;-65
2022/11/04 06:44:55;;;;;;;16.07;8.50;;;;;;;8.82;78.23;101132.97;5060520;28;20068;-63
2022/11/04 06:47:22;;;;;;;11.00;8.47;;;;;;;8.83;78.32;101131.91;5039640;28;20053;-66
2022/11/04 06:49:50;;;;;;;14.53;7.80;;;;;;;8.67;78.03;101114.09;5031856;28;20052;-63
2022/11/04 06:52:17;;;;;;;17.03;10.10;;;;;;;8.66;78.13;101134.69;5035153;28;20052;-63
2022/11/04 06:54:45;;;;;;;17.90;11.30;;;;;;;8.62;78.12;101142.72;5038705;28;20041;-63
2022/11/04 06:57:11;;;;;;;18.67;11.00;;;;;;;8.55;78.30;101130.91;5029276;28;20061;-62
2022/11/04 06:59:38;;;;;;;15.30;8.73;;;;;;;8.54;78.08;101138.38;5033050;28;20052;-62
2022/11/04 07:02:06;;;;;;;16.17;9.67;;;;;;;8.60;78.32;101142.09;5038055;28;20053;-63
2022/11/04 07:04:32;;;;;;;17.67;10.40;;;;;;;8.52;78.05;101135.03;5040624;28;20385;-61
2022/11/04 07:06:59;;;;;;;15.07;10.00;;;;;;;8.63;77.84;101149.97;5034450;28;20041;-62
2022/11/04 07:09:26;;;;;;;11.60;8.70;;;;;;;8.62;77.82;101148.28;5035652;28;20049;-62
2022/11/04 07:11:53;;;;;;;17.73;11.27;;;;;;;8.63;78.12;101136.03;5033994;28;20042;-61
2022/11/04 07:14:20;;;;;;;15.17;10.03;;;;;;;8.81;78.17;101142.44;5036565;28;20049;-62
2022/11/04 07:16:50;;;;;;;12.30;8.57;;;;;;;8.81;77.98;101145.22;5035221;28;20425;-62
2022/11/04 07:19:17;;;;;;;;;;;;;;;8.50;78.62;101144.72;5037085;28;20056;-62
2022/11/04 07:21:43;;;;;;;12.47;8.83;;;;;;;8.71;78.32;101148.69;5047211;28;19925;-63
2022/11/04 07:24:10;;;;;;;15.47;8.90;;;;;;;8.70;78.47;101161.75;5038592;28;20401;-63
2022/11/04 07:26:37;;;;;;;12.20;9.10;;;;;;;8.73;78.61;101164.03;5048224;28;20064;-62
2022/11/04 07:29:05;;;;;;;12.27;8.57;;;;;;;8.69;78.66;101168.44;5036375;28;20057;-62
2022/11/04 07:31:32;;;;;;;14.53;9.73;;;;;;;8.65;78.69;101156.13;5039301;28;21615;-62
2022/11/04 07:33:59;;;;;;;13.43;10.53;;;;;;;8.71;78.97;101171.81;5043500;28;20044;-61
2022/11/04 07:36:26;;;;;;;13.47;9.00;;;;;;;8.71;79.05;101173.75;5039968;28;20054;-62
2022/11/04 07:38:53;;;;;;;12.33;9.20;;;;;;;8.71;78.96;101166.22;5051531;28;20504;-62
2022/11/04 07:41:21;;;;;;;14.57;9.53;;;;;;;8.78;78.99;101169.69;5036182;28;20053;-62
2022/11/04 07:43:49;;;;;;;16.50;10.77;;;;;;;8.94;79.20;101168.00;5046182;28;21522;-62
2022/11/04 07:46:17;;;;;;;12.10;9.83;;;;;;;9.12;79.19;101169.66;5038594;28;20056;-62
2022/11/04 07:48:44;;;;;;;15.43;9.83;;;;;;;9.31;79.47;101173.00;5034471;28;20045;-62
2022/11/04 07:51:15;;;;;;;14.10;8.00;;;;;;;9.53;79.36;101181.38;5039987;28;20041;-62
2022/11/04 07:53:42;;;;;;;12.98;8.45;;;;;;;9.77;79.61;101186.72;5038936;28;20048;-63
2022/11/04 07:56:11;;;;;;;15.30;8.40;;;;;;;10.09;79.58;101182.09;5033701;28;20048;-62
2022/11/04 07:58:39;;;;;;;13.57;10.23;;;;;;;10.33;79.13;101181.81;5035735;28;20554;-62
2022/11/04 08:01:09;;;;;;;11.30;8.80;;;;;;;10.46;79.20;101191.69;5035286;28;20052;-62
2022/11/04 08:03:36;;;;;;;;;;;;;;;10.34;80.33;101184.34;5033100;28;20774;-62
2022/11/04 08:06:05;;;;;;;12.37;8.57;;;;;;;10.61;79.06;101186.25;5033861;28;19921;-61
2022/11/04 08:08:33;;;;;;;13.17;9.33;;;;;;;10.67;78.63;101188.84;5042382;28;20408;-62
2022/11/04 08:11:06;;;;;;;12.73;9.40;;;;;;;10.75;78.31;101192.25;5034846;28;20065;-62
2022/11/04 08:13:40;;;;;;;13.98;7.30;;;;;;;10.87;78.24;101192.91;5034809;28;20046;-63
2022/11/04 08:16:12;;;;;;;13.50;8.83;;;;;;;11.07;77.97;101197.81;5030575;28;20075;-62
2022/11/04 08:18:40;;;;;;;12.17;9.27;;;;;;;11.25;77.21;101210.53;5041453;28;20052;-63
2022/11/04 08:21:08;;;;;;;10.63;8.37;;;;;;;11.40;76.89;101213.41;5035734;28;20048;-63
2022/11/04 08:23:35;;;;;;;8.87;7.73;;;;;;;11.69;76.26;101213.88;5037987;28;20504;-63
2022/11/04 08:26:10;;;;;;;11.43;7.70;;;;;;;11.89;75.83;101204.75;5032709;28;20055;-62
2022/11/04 08:28:38;;;;;;;10.03;7.83;;;;;;;12.04;75.97;101202.03;5049937;28;20056;-63
2022/11/04 08:31:08;;;;;;;12.73;8.07;;;;;;;12.37;75.57;101207.41;5039451;28;20053;-62
2022/11/04 08:33:35;;;;;;;;;;;;;;;12.57;76.76;101207.47;5033742;28;20050;-63
2022/11/04 08:36:08;;;;;;;11.02;6.97;;;;;;;13.16;74.90;101208.88;5043363;28;19958;-61
2022/11/04 08:38:36;;;;;;;8.07;7.30;;;;;;;13.78;73.88;101213.28;5048414;28;20061;-62
2022/11/04 08:41:05;;;;;;;17.50;7.93;;;;;;;14.31;72.89;101215.56;5041158;28;20056;-62
2022/11/04 08:43:33;;;;;;;12.60;8.70;;;;;;;15.12;72.11;101202.91;5038201;28;20045;-63
2022/11/04 08:46:01;;;;;;;9.30;7.38;;;;;;;15.86;70.37;101212.84;5038644;28;20494;-62
2022/11/04 08:48:28;;;;;;;8.43;5.90;;;;;;;16.70;68.21;101217.03;5037863;28;20060;-63
2022/11/04 08:50:57;;;;;;;11.52;7.20;;;;;;;17.38;66.30;101218.47;5054511;28;20052;-62
2022/11/04 08:53:24;;;;;;;13.20;7.40;;;;;;;17.56;65.73;101226.03;5052812;28;20048;-65
2022/11/04 08:55:52;;;;;;;9.32;8.43;;;;;;;17.98;64.73;101224.97;5040651;28;20053;-62
2022/11/04 08:58:20;;;;;;;10.77;9.60;;;;;;;18.91;62.77;101223.75;5044663;28;20492;-63
2022/11/04 09:00:47;;;;;;;9.05;7.30;;;;;;;19.61;60.61;101223.03;5041373;28;20056;-62
2022/11/04 09:03:14;;;;;;;8.65;7.35;;;;;;;20.19;59.16;101226.78;5046876;28;20057;-62
2022/11/04 09:05:46;;;;;;;8.55;7.38;;;;;;;20.76;57.66;101228.75;5032966;28;20056;-63
2022/11/04 09:08:15;;;;;;;12.65;8.40;;;;;;;21.43;56.09;101241.59;5034169;28;20064;-63
2022/11/04 09:10:44;;;;;;;9.63;7.28;;;;;;;22.30;54.83;101235.59;5042984;28;20073;-63
2022/11/04 09:13:11;;;;;;;9.05;7.75;;;;;;;22.91;52.95;101241.72;5030659;28;20146;-62
2022/11/04 09:15:38;;;;;;;10.88;8.13;;;;;;;23.61;50.65;101233.31;5034579;28;20106;-63
2022/11/04 09:18:06;;;;;;;7.85;7.03;;;;;;;24.32;48.89;101223.56;5040754;28;20052;-62
2022/11/04 09:20:33;;;;;;;11.05;7.43;;;;;;;25.02;47.55;101229.00;5040970;28;20054;-63
2022/11/04 09:23:00;;;;;;;7.65;6.93;;;;;;;25.57;46.19;101223.66;5043100;28;20299;-62
2022/11/04 09:25:29;;;;;;;8.27;7.47;;;;;;;26.11;44.69;101221.03;5044552;28;20068;-62
2022/11/04 09:27:55;;;;;;;8.27;7.13;;;;;;;26.45;43.42;101236.59;5036080;28;20053;-62
2022/11/04 09:30:22;;;;;;;8.40;7.55;;;;;;;26.10;43.25;101230.84;5049385;28;20060;-63
2022/11/04 09:32:49;;;;;;;8.00;7.15;;;;;;;26.12;42.87;101219.84;5041230;28;20049;-62
2022/11/04 09:35:18;;;;;;;8.95;8.02;;;;;;;27.08;41.85;101226.19;5036453;28;20136;-63
2022/11/04 09:37:45;;;;;;;6.82;6.22;;;;;;;27.62;39.80;101233.84;5041906;28;20403;-63
2022/11/04 09:40:19;;;;;;;8.32;7.15;;;;;;;26.83;40.29;101228.50;5046003;28;20052;-63
2022/11/04 09:43:04;;;;;;;9.57;8.02;;;;;;;26.20;41.67;101224.56;5039854;28;20045;-63
2022/11/04 09:45:32;;;;;;;8.57;7.30;;;;;;;26.55;40.36;101220.91;5041705;28;20073;-62
2022/11/04 09:48:06;;;;;;;7.53;6.93;;;;;;;27.18;39.44;101225.63;5040774;28;20061;-63
2022/11/04 09:50:54;;;;;;;8.90;8.00;;;;;;;27.54;38.66;101230.00;5032846;28;20492;-62
2022/11/04 09:53:39;;;;;;;9.52;8.60;;;;;;;26.89;38.71;101235.59;5042459;28;20067;-62
2022/11/04 09:56:18;;;;;;;8.48;7.68;;;;;;;26.45;39.26;101221.44;5037293;28;20053;-63
2022/11/04 09:58:45;;;;;;;10.02;7.45;;;;;;;26.48;38.50;101223.59;5046386;28;20045;-61
2022/11/04 10:01:17;;;;;;;7.53;6.82;;;;;;;26.45;38.47;101238.63;5042541;28;20509;-63
2022/11/04 10:04:03;;;;;;;12.30;7.75;;;;;;;26.32;39.35;101239.94;5040858;28;20045;-63
2022/11/04 10:06:54;;;;;;;8.98;7.25;;;;;;;26.40;38.84;101244.66;5036147;28;20503;-62
2022/11/04 10:09:45;;;;;;;9.40;6.95;;;;;;;26.26;38.97;101248.00;5037608;28;20049;-63
2022/11/04 10:12:24;;;;;;;9.70;8.70;;;;;;;26.15;37.88;101256.34;5038078;28;20053;-63
2022/11/04 10:15:21;;;;;;;8.57;7.50;;;;;;;26.13;38.69;101250.13;5035233;28;20057;-63
2022/11/04 10:17:48;;;;;;;9.82;6.88;;;;;;;26.29;37.67;101257.88;5041974;28;20325;-63
2022/11/04 10:21:05;;;;;;;10.93;7.15;;;;;;;26.06;38.28;101249.97;5036522;28;20045;-63
2022/11/04 10:24:12;;;;;;;8.30;7.45;;;;;;;25.58;39.18;101248.22;5032456;28;20053;-63
2022/11/04 10:27:02;;;;;;;9.38;8.20;;;;;;;26.26;38.68;101247.16;5032556;28;20052;-62
2022/11/04 10:29:49;;;;;;;12.10;7.10;;;;;;;27.11;37.36;101254.94;5040893;28;20487;-62
2022/11/04 10:32:29;;;;;;;9.57;8.77;;;;;;;27.60;35.92;101262.09;5045179;28;20052;-62
2022/11/04 10:35:33;;;;;;;10.73;7.35;;;;;;;28.23;35.63;101263.66;5047235;28;20143;-63
2022/11/04 10:38:24;;;;;;;10.13;6.80;;;;;;;28.74;34.59;101260.41;5035074;28;20492;-62
2022/11/04 10:40:53;;;;;;;9.07;6.47;;;;;;;29.22;33.02;101249.19;5037997;28;20053;-62
2022/11/04 10:43:25;;;;;;;9.27;8.18;;;;;;;29.90;32.42;101255.72;5037233;28;20507;-63
2022/11/04 10:46:11;;;;;;;7.95;6.05;;;;;;;30.67;31.73;101251.03;5045596;28;20053;-63
2022/11/04 10:48:50;;;;;;;7.38;6.53;;;;;;;30.85;31.07;101245.41;5044982;28;20044;-63
2022/11/04 10:51:20;;;;;;;8.02;7.22;;;;;;;31.36;29.97;101253.91;5033601;28;20061;-63
2022/11/04 10:53:54;;;;;;;14.57;13.68;;;;;;;31.74;29.34;101245.78;5031392;28;20646;-63
2022/11/04 10:56:34;;;;;;;15.35;14.00;;;;;;;32.06;29.04;101245.00;5038964;28;20050;-62
2022/11/04 10:59:14;;;;;;;15.77;14.38;;;;;;;32.36;28.81;101241.72;5041986;28;20421;-63
2022/11/04 11:01:51;;;;;;;14.82;13.40;;;;;;;32.98;27.64;101246.19;5042351;28;20455;-62
2022/11/04 11:04:32;;;;;;;15.10;13.80;;;;;;;33.33;26.97;101244.38;5040258;28;20041;-63
2022/11/04 11:07:02;;;;;;;13.20;11.98;;;;;;;33.50;26.82;101231.91;5040063;28;20057;-63
2022/11/04 11:09:32;;;;;;;15.68;14.50;;;;;;;33.72;25.96;101238.41;5036730;28;20049;-62
2022/11/04 11:12:02;;;;;;;14.88;13.55;;;;;;;33.99;25.44;101238.63;5042622;28;20041;-62
2022/11/04 11:14:41;;;;;;;13.70;12.40;;;;;;;34.60;25.19;101232.31;5039850;28;20049;-62
2022/11/04 11:17:14;;;;;;;13.85;12.73;;;;;;;35.25;24.55;101218.75;5033776;28;20116;-62
2022/11/04 11:19:56;;;;;;;13.63;12.63;;;;;;;36.11;24.00;101231.22;5048930;28;20049;-63
2022/11/04 11:22:37;;;;;;;14.32;13.27;;;;;;;36.66;23.19;101232.75;5036360;28;20049;-62
2022/11/04 11:25:32;;;;;;;13.98;13.07;;;;;;;37.14;22.50;101228.47;5052534;28;20037;-63
2022/11/04 11:28:04;;;;;;;15.30;14.40;;;;;;;37.29;22.35;101232.72;5037256;28;20503;-64
2022/11/04 11:30:40;;;;;;;12.35;11.45;;;;;;;37.55;21.23;101233.00;5045861;28;20053;-62
2022/11/04 11:33:18;;;;;;;13.88;12.77;;;;;;;37.88;21.45;101216.38;5036625;28;20056;-63
2022/11/04 11:35:50;;;;;;;12.80;11.97;;;;;;;37.94;21.01;101218.31;5054452;28;20483;-63
2022/11/04 11:38:26;;;;;;;13.75;12.65;;;;;;;37.89;20.48;101226.78;5055977;28;20278;-62
2022/11/04 11:41:04;;;;;;;13.70;12.60;;;;;;;37.70;20.96;101225.56;5055964;28;20131;-62
2022/11/04 11:43:52;;;;;;;14.07;12.70;;;;;;;37.54;20.56;101222.59;5041304;28;20433;-62
2022/11/04 11:46:23;;;;;;;;;;;;;;;37.90;22.07;101222.63;5047897;28;20045;-62
2022/11/04 11:48:52;;;;;;;14.75;13.25;;;;;;;37.66;20.49;101204.44;5042682;28;20087;-62
2022/11/04 11:51:26;;;;;;;13.65;12.48;;;;;;;37.59;21.11;101214.16;5041443;28;20046;-62
2022/11/04 11:54:13;;;;;;;15.65;12.40;;;;;;;37.57;21.40;101205.03;5035663;28;20107;-62
2022/11/04 11:56:43;;;;;;;11.52;10.63;;;;;;;37.60;20.13;101203.31;5036022;28;20491;-62
2022/11/04 11:59:43;;;;;;;11.35;10.52;;;;;;;36.72;20.09;101213.47;5039740;28;20065;-63
2022/11/04 12:02:49;;;;;;;11.88;10.88;;;;;;;36.09;21.24;101202.56;5037406;28;20523;-65
2022/11/04 12:05:18;;;;;;;12.45;11.35;;;;;;;36.39;19.98;101209.53;5035134;28;20056;-63
2022/11/04 12:08:32;;;;;;;11.45;10.73;;;;;;;36.40;20.56;101194.53;5042237;28;20419;-66
2022/11/04 12:11:33;;;;;;;11.98;11.07;;;;;;;36.54;20.54;101193.47;5042871;28;20496;-62
2022/11/04 12:14:04;;;;;;;13.80;12.60;;;;;;;36.59;20.27;101197.97;5044748;28;20057;-62
2022/11/04 12:17:13;;;;;;;15.60;14.13;;;;;;;36.59;20.53;101186.34;5048831;28;20068;-62